createdAt,value
2023-01-29T00:01:11.887Z,8.23
2023-01-29T00:06:13.508Z,8.38
2023-01-29T00:11:16.556Z,9.18
2023-01-29T00:16:19.008Z,8.77
2023-01-29T00:21:22.436Z,9.05
2023-01-29T00:26:24.607Z,8.63
2023-01-29T00:31:27.028Z,8.40
2023-01-29T00:36:28.913Z,7.28
2023-01-29T00:41:51.217Z,8.43
2023-01-29T00:46:52.955Z,7.90
2023-01-29T00:52:29.751Z,8.73
2023-01-29T00:57:33.315Z,7.82
2023-01-29T01:02:53.630Z,7.22
2023-01-29T01:07:57.402Z,8.07
2023-01-29T01:13:04.957Z,7.65
2023-01-29T01:18:06.998Z,8.20
2023-01-29T01:23:10.962Z,9.15
2023-01-29T01:28:12.843Z,9.23
2023-01-29T01:33:14.441Z,9.48
2023-01-29T01:38:16.059Z,8.80
2023-01-29T01:43:18.046Z,8.52
2023-01-29T01:48:25.015Z,9.65
2023-01-29T01:53:34.417Z,9.35
2023-01-29T01:58:58.035Z,9.35
2023-01-29T02:04:20.545Z,8.93
2023-01-29T02:09:46.510Z,8.52
2023-01-29T02:14:48.603Z,7.65
2023-01-29T02:20:00.804Z,7.07
2023-01-29T02:25:21.227Z,7.63
2023-01-29T02:30:40.331Z,6.82
2023-01-29T02:36:14.127Z,7.60
2023-01-29T02:41:27.279Z,6.47
2023-01-29T02:46:43.865Z,6.60
2023-01-29T02:52:09.714Z,6.57
2023-01-29T02:57:31.307Z,6.70
2023-01-29T03:02:42.783Z,6.85
2023-01-29T03:07:53.246Z,6.22
2023-01-29T03:13:09.811Z,6.57
2023-01-29T03:18:16.966Z,7.47
2023-01-29T03:23:48.477Z,6.15
2023-01-29T03:29:10.659Z,6.82
2023-01-29T03:34:24.053Z,6.78
2023-01-29T03:39:28.654Z,6.13
2023-01-29T03:44:43.759Z,6.75
2023-01-29T03:50:13.372Z,6.75
2023-01-29T03:55:19.510Z,7.10
2023-01-29T04:00:38.185Z,7.53
2023-01-29T04:05:47.557Z,7.30
2023-01-29T04:11:01.952Z,7.25
2023-01-29T04:16:08.941Z,6.13
2023-01-29T04:21:40.533Z,6.30
2023-01-29T04:27:00.486Z,4.38
2023-01-29T04:32:40.189Z,4.78
2023-01-29T04:37:53.644Z,5.07
2023-01-29T04:43:06.776Z,4.43
2023-01-29T04:48:37.833Z,4.40
2023-01-29T04:53:51.083Z,4.28
2023-01-29T04:58:59.926Z,4.97
2023-01-29T05:04:06.279Z,4.88
2023-01-29T05:09:09.664Z,4.75
2023-01-29T05:14:14.667Z,4.85
2023-01-29T05:19:17.265Z,5.10
2023-01-29T05:24:21.707Z,4.85
2023-01-29T05:29:23.520Z,5.00
2023-01-29T05:34:25.570Z,5.25
2023-01-29T05:39:27.375Z,5.47
2023-01-29T05:44:28.990Z,6.07
2023-01-29T05:49:30.764Z,6.10
2023-01-29T05:54:32.450Z,6.13
2023-01-29T05:59:34.155Z,6.40
2023-01-29T06:04:36.008Z,6.63
2023-01-29T06:09:37.684Z,6.90
2023-01-29T06:14:39.282Z,7.72
2023-01-29T06:19:41.012Z,8.07
2023-01-29T06:24:42.867Z,8.40
2023-01-29T06:29:44.494Z,8.68
2023-01-29T06:34:48.625Z,8.05
2023-01-29T06:39:54.375Z,7.90
2023-01-29T06:44:56.731Z,9.13
2023-01-29T06:49:58.565Z,9.50
2023-01-29T06:55:00.189Z,9.38
2023-01-29T07:00:02.072Z,9.80
2023-01-29T07:05:04.020Z,9.85
2023-01-29T07:10:06.218Z,8.57
2023-01-29T07:15:08.362Z,7.53
2023-01-29T07:20:10.658Z,8.02
2023-01-29T07:25:12.275Z,7.72
2023-01-29T07:30:14.814Z,8.15
2023-01-29T07:35:16.623Z,8.25
2023-01-29T07:40:18.946Z,8.80
2023-01-29T07:45:23.158Z,8.13
2023-01-29T07:50:26.327Z,16.27
2023-01-29T07:55:28.213Z,9.30
2023-01-29T08:00:31.620Z,6.65
2023-01-29T08:05:34.256Z,7.97
2023-01-29T08:10:36.979Z,7.43
2023-01-29T08:15:39.350Z,9.05
2023-01-29T08:20:41.340Z,8.40
2023-01-29T08:25:43.122Z,8.88
2023-01-29T08:30:45.316Z,10.10
2023-01-29T08:35:51.021Z,9.57
2023-01-29T08:40:52.863Z,14.27
2023-01-29T08:45:54.707Z,13.13
2023-01-29T08:51:04.397Z,11.68
2023-01-29T08:56:06.475Z,9.13
2023-01-29T09:01:13.213Z,9.35
2023-01-29T09:06:15.179Z,9.70
2023-01-29T09:11:16.833Z,9.68
2023-01-29T09:16:18.525Z,9.45
2023-01-29T09:21:23.195Z,11.30
2023-01-29T09:26:24.911Z,9.07
2023-01-29T09:31:26.663Z,7.97
2023-01-29T09:36:30.597Z,7.53
2023-01-29T09:41:44.631Z,8.18
2023-01-29T09:46:48.847Z,7.85
2023-01-29T09:51:55.537Z,6.53
2023-01-29T09:56:59.956Z,9.57
2023-01-29T10:02:19.328Z,7.35
2023-01-29T10:08:02.918Z,9.60
2023-01-29T10:13:15.310Z,8.27
2023-01-29T10:18:45.107Z,9.23
2023-01-29T10:23:54.764Z,9.45
2023-01-29T10:28:59.155Z,9.65
2023-01-29T10:34:07.344Z,9.20
2023-01-29T10:39:18.667Z,8.02
2023-01-29T10:44:26.213Z,7.57
2023-01-29T10:49:43.012Z,8.88
2023-01-29T10:54:47.505Z,8.27
2023-01-29T11:00:06.459Z,10.10
2023-01-29T11:05:25.995Z,8.48
2023-01-29T11:10:29.482Z,8.77
2023-01-29T11:15:34.825Z,13.45
2023-01-29T11:20:36.672Z,8.50
2023-01-29T11:25:38.374Z,8.57
2023-01-29T11:30:41.796Z,8.60
2023-01-29T11:35:43.964Z,8.68
2023-01-29T11:40:45.849Z,8.88
2023-01-29T11:45:50.517Z,8.90
2023-01-29T11:51:05.529Z,9.20
2023-01-29T11:56:27.399Z,8.18
2023-01-29T12:01:41.136Z,11.27
2023-01-29T12:06:47.496Z,8.68
2023-01-29T12:11:51.828Z,9.13
2023-01-29T12:17:01.303Z,9.60
2023-01-29T12:22:17.458Z,8.38
2023-01-29T12:27:22.368Z,8.43
2023-01-29T12:32:58.919Z,9.90
2023-01-29T12:38:09.477Z,9.65
2023-01-29T12:43:25.555Z,9.07
2023-01-29T12:48:34.236Z,7.65
2023-01-29T12:58:55.457Z,9.35
2023-01-29T13:04:20.465Z,9.82
2023-01-29T13:09:28.670Z,10.63
2023-01-29T13:14:47.215Z,10.02
2023-01-29T13:25:04.816Z,8.63
2023-01-29T13:30:08.146Z,9.10
2023-01-29T13:35:15.491Z,8.65
2023-01-29T13:40:38.197Z,9.27
2023-01-29T13:45:45.453Z,9.30
2023-01-29T13:50:47.805Z,9.18
2023-01-29T13:55:49.726Z,8.93
2023-01-29T14:00:51.699Z,8.55
2023-01-29T14:05:53.531Z,9.75
2023-01-29T14:11:28.669Z,9.25
2023-01-29T14:16:36.208Z,9.85
2023-01-29T14:21:39.040Z,9.20
2023-01-29T14:26:45.738Z,10.23
2023-01-29T14:32:00.853Z,11.10
2023-01-29T14:37:20.101Z,22.52
2023-01-29T14:42:24.498Z,10.55
2023-01-29T14:47:35.118Z,16.02
2023-01-29T14:52:41.759Z,17.00
2023-01-29T14:57:45.634Z,20.17
2023-01-29T15:02:59.870Z,28.33
2023-01-29T15:08:30.156Z,27.88
2023-01-29T15:13:46.010Z,14.82
2023-01-29T15:18:54.990Z,12.75
2023-01-29T15:24:07.477Z,16.17
2023-01-29T15:29:23.495Z,15.85
2023-01-29T15:34:25.586Z,13.30
2023-01-29T15:39:28.395Z,11.82
2023-01-29T15:44:30.294Z,11.25
2023-01-29T15:49:36.441Z,16.73
2023-01-29T15:54:39.000Z,18.45
2023-01-29T15:59:44.874Z,11.88
2023-01-29T16:04:46.769Z,19.13
2023-01-29T16:09:50.869Z,13.18
2023-01-29T16:14:52.946Z,12.20
2023-01-29T16:19:59.327Z,12.10
2023-01-29T16:25:11.344Z,11.63
2023-01-29T16:30:18.011Z,12.68
2023-01-29T16:35:20.095Z,12.23
2023-01-29T16:40:33.319Z,24.17
2023-01-29T16:45:35.083Z,13.18
2023-01-29T16:50:53.983Z,14.90
2023-01-29T16:56:05.875Z,13.57
2023-01-29T17:01:11.138Z,13.98
2023-01-29T17:06:21.053Z,14.10
2023-01-29T17:11:33.461Z,16.27
2023-01-29T17:16:49.062Z,12.90
2023-01-29T17:21:50.914Z,14.98
2023-01-29T17:26:53.621Z,14.45
2023-01-29T17:31:56.084Z,14.90
2023-01-29T17:36:57.769Z,18.67
2023-01-29T17:41:59.475Z,19.88
2023-01-29T17:47:01.124Z,15.27
2023-01-29T17:52:02.801Z,17.58
2023-01-29T17:57:04.623Z,22.02
2023-01-29T18:02:06.470Z,21.92
2023-01-29T18:07:10.632Z,21.70
2023-01-29T18:12:12.286Z,21.15
2023-01-29T18:17:14.327Z,20.58
2023-01-29T18:22:16.053Z,20.77
2023-01-29T18:27:17.825Z,20.48
2023-01-29T18:32:19.410Z,19.35
2023-01-29T18:37:20.992Z,21.50
2023-01-29T18:42:22.581Z,19.33
2023-01-29T18:47:24.497Z,19.38
2023-01-29T18:52:26.337Z,17.55
2023-01-29T18:58:33.794Z,16.92
2023-01-29T19:02:50.866Z,14.02
2023-01-29T19:07:52.533Z,12.02
2023-01-29T19:12:54.382Z,12.90
2023-01-29T19:17:56.504Z,12.43
2023-01-29T19:22:58.157Z,12.38
2023-01-29T19:27:59.879Z,13.70
2023-01-29T19:33:01.610Z,12.75
2023-01-29T19:38:04.650Z,13.73
2023-01-29T19:43:08.773Z,14.35
2023-01-29T19:48:10.602Z,15.40
2023-01-29T19:53:12.524Z,15.90
2023-01-29T19:58:14.484Z,17.13
2023-01-29T20:03:18.362Z,16.65
2023-01-29T20:08:19.997Z,18.42
2023-01-29T20:13:23.931Z,18.38
2023-01-29T20:18:25.547Z,17.45
2023-01-29T20:23:37.202Z,19.75
2023-01-29T20:28:40.456Z,19.38
2023-01-29T20:33:43.055Z,17.80
2023-01-29T20:38:44.869Z,18.55
2023-01-29T20:43:47.433Z,17.00
2023-01-29T20:48:53.078Z,17.60
2023-01-29T20:53:55.589Z,20.95
2023-01-29T20:58:57.392Z,25.60
2023-01-29T21:03:59.023Z,23.67
2023-01-29T21:09:00.682Z,32.38
2023-01-29T21:14:05.085Z,27.77
2023-01-29T21:19:06.882Z,25.85
2023-01-29T21:24:09.306Z,26.30
2023-01-29T21:29:11.729Z,23.35
2023-01-29T21:34:13.651Z,21.13
2023-01-29T21:39:19.633Z,22.60
2023-01-29T21:44:21.235Z,20.75
2023-01-29T21:49:23.446Z,20.67
2023-01-29T21:54:30.905Z,19.48
2023-01-29T21:59:32.513Z,18.63
2023-01-29T22:04:34.598Z,20.65
2023-01-29T22:09:37.090Z,19.90
2023-01-29T22:14:38.881Z,17.25
2023-01-29T22:19:40.675Z,19.42
2023-01-29T22:24:46.544Z,17.98
2023-01-29T22:29:48.365Z,18.83
2023-01-29T22:34:49.983Z,26.85
2023-01-29T22:39:54.146Z,24.70
2023-01-29T22:44:55.930Z,26.63
2023-01-29T22:49:57.547Z,28.38
2023-01-29T22:54:59.354Z,20.67
2023-01-29T23:00:01.103Z,18.05
2023-01-29T23:05:04.265Z,15.57
2023-01-29T23:10:07.245Z,16.17
2023-01-29T23:15:09.133Z,16.88
2023-01-29T23:20:11.529Z,14.60
2023-01-29T23:25:13.278Z,15.90
2023-01-29T23:30:14.955Z,16.45
2023-01-29T23:35:16.964Z,15.63
2023-01-29T23:40:18.855Z,18.17
2023-01-29T23:45:20.831Z,19.20
2023-01-29T23:50:22.418Z,19.25
2023-01-29T23:55:24.239Z,18.75
